createdAt,value
2023-01-25T00:01:06.695Z,2.01
2023-01-25T00:06:10.229Z,1.99
2023-01-25T00:11:13.096Z,1.47
2023-01-25T00:16:17.359Z,1.57
2023-01-25T00:21:22.146Z,1.58
2023-01-25T00:26:25.062Z,1.38
2023-01-25T00:31:41.833Z,1.40
2023-01-25T00:36:46.233Z,1.57
2023-01-25T00:41:49.149Z,1.50
2023-01-25T00:46:53.377Z,1.48
2023-01-25T00:51:56.530Z,1.45
2023-01-25T00:56:59.671Z,1.33
2023-01-25T01:02:04.603Z,1.46
2023-01-25T01:07:07.623Z,1.65
2023-01-25T01:12:10.607Z,1.70
2023-01-25T01:17:14.868Z,1.69
2023-01-25T01:22:17.822Z,1.78
2023-01-25T01:27:20.721Z,1.86
2023-01-25T01:32:25.222Z,1.84
2023-01-25T01:37:28.204Z,1.81
2023-01-25T01:42:31.061Z,1.87
2023-01-25T01:47:45.877Z,2.00
2023-01-25T01:52:51.369Z,1.89
2023-01-25T01:57:59.004Z,1.93
2023-01-25T02:03:03.577Z,1.90
2023-01-25T02:08:08.999Z,1.97
2023-01-25T02:13:12.175Z,1.98
2023-01-25T02:18:17.255Z,1.99
2023-01-25T02:23:26.925Z,2.06
2023-01-25T02:28:36.124Z,2.07
2023-01-25T02:33:40.730Z,1.93
2023-01-25T02:38:47.947Z,1.94
2023-01-25T02:43:53.226Z,1.94
2023-01-25T02:48:56.825Z,1.99
2023-01-25T02:54:00.754Z,2.07
2023-01-25T02:59:05.904Z,1.95
2023-01-25T03:04:10.869Z,2.03
2023-01-25T03:09:14.053Z,2.03
2023-01-25T03:14:23.008Z,2.09
2023-01-25T03:19:26.285Z,1.98
2023-01-25T03:24:29.570Z,2.00
2023-01-25T03:29:34.521Z,2.00
2023-01-25T03:34:39.609Z,1.98
2023-01-25T03:39:43.156Z,1.95
2023-01-25T03:44:47.660Z,1.76
2023-01-25T03:49:50.502Z,1.68
2023-01-25T03:54:55.144Z,1.74
2023-01-25T04:00:00.772Z,1.91
2023-01-25T04:05:03.892Z,1.93
2023-01-25T04:10:08.860Z,1.87
2023-01-25T04:15:16.445Z,1.79
2023-01-25T04:20:19.740Z,1.35
2023-01-25T04:25:23.156Z,1.60
2023-01-25T04:30:31.102Z,1.76
2023-01-25T04:35:34.245Z,1.73
2023-01-25T04:40:38.863Z,1.62
2023-01-25T04:45:43.213Z,1.73
2023-01-25T04:50:53.228Z,1.29
2023-01-25T04:55:58.309Z,1.05
2023-01-25T05:01:03.807Z,1.41
2023-01-25T05:06:08.256Z,1.66
2023-01-25T05:11:11.648Z,1.70
2023-01-25T05:16:30.630Z,1.58
2023-01-25T05:21:52.381Z,1.44
2023-01-25T05:27:01.624Z,1.29
2023-01-25T05:32:17.093Z,1.00
2023-01-25T05:37:21.994Z,1.46
2023-01-25T05:42:32.523Z,1.44
2023-01-25T05:47:37.600Z,0.90
2023-01-25T05:52:41.027Z,1.40
2023-01-25T05:57:45.285Z,1.37
2023-01-25T06:02:49.759Z,1.30
2023-01-25T06:07:58.709Z,1.45
2023-01-25T06:13:06.217Z,1.32
2023-01-25T06:18:10.625Z,1.52
2023-01-25T06:23:33.524Z,1.56
2023-01-25T06:28:38.123Z,1.48
2023-01-25T06:33:43.736Z,1.37
2023-01-25T06:38:49.604Z,1.24
2023-01-25T06:43:52.909Z,1.02
2023-01-25T06:48:57.312Z,1.25
2023-01-25T06:54:03.579Z,1.40
2023-01-25T06:59:06.571Z,1.19
2023-01-25T07:04:13.013Z,1.13
2023-01-25T07:09:16.350Z,1.40
2023-01-25T07:14:19.244Z,1.32
2023-01-25T07:19:23.695Z,1.12
2023-01-25T07:24:29.128Z,1.38
2023-01-25T07:29:32.084Z,1.62
2023-01-25T07:34:36.355Z,1.57
2023-01-25T07:39:40.802Z,1.64
2023-01-25T07:44:43.765Z,1.60
2023-01-25T07:49:50.363Z,1.63
2023-01-25T07:54:53.253Z,1.21
2023-01-25T07:59:56.391Z,1.33
2023-01-25T08:05:00.773Z,1.40
2023-01-25T08:10:03.659Z,1.47
2023-01-25T08:15:08.502Z,1.33
2023-01-25T08:20:13.989Z,1.12
2023-01-25T08:25:16.921Z,1.27
2023-01-25T08:30:20.185Z,1.25
2023-01-25T08:35:24.450Z,1.33
2023-01-25T08:40:27.409Z,0.59
2023-01-25T08:45:34.473Z,0.54
2023-01-25T08:50:38.757Z,0.93
2023-01-25T08:55:43.121Z,1.39
2023-01-25T09:00:46.230Z,1.50
2023-01-25T09:05:50.499Z,1.38
2023-01-25T09:10:53.431Z,1.51
2023-01-25T09:16:00.851Z,1.47
2023-01-25T09:21:08.898Z,1.64
2023-01-25T09:26:15.381Z,1.85
2023-01-25T09:31:22.898Z,1.76
2023-01-25T09:36:47.510Z,1.81
2023-01-25T09:42:20.477Z,2.00
2023-01-25T09:47:30.593Z,1.86
2023-01-25T09:53:06.919Z,1.92
2023-01-25T09:58:15.692Z,1.95
2023-01-25T10:03:24.971Z,2.00
2023-01-25T10:08:33.764Z,2.20
2023-01-25T10:13:36.700Z,2.25
2023-01-25T10:18:45.808Z,2.29
2023-01-25T10:24:13.962Z,2.20
2023-01-25T10:29:20.891Z,1.72
2023-01-25T10:34:27.486Z,2.11
2023-01-25T10:39:35.278Z,2.37
2023-01-25T10:44:38.344Z,2.40
2023-01-25T10:49:43.214Z,2.35
2023-01-25T10:54:50.289Z,1.53
2023-01-25T10:59:54.097Z,1.36
2023-01-25T11:04:56.985Z,1.31
2023-01-25T11:10:01.410Z,0.97
2023-01-25T11:15:25.791Z,0.94
2023-01-25T11:20:28.776Z,1.22
2023-01-25T11:25:34.795Z,1.47
2023-01-25T11:30:37.882Z,1.46
2023-01-25T11:36:00.051Z,1.93
2023-01-25T11:41:13.796Z,2.01
2023-01-25T11:46:32.105Z,1.63
2023-01-25T11:51:40.610Z,1.97
2023-01-25T11:56:55.401Z,1.98
2023-01-25T12:02:13.435Z,2.02
2023-01-25T12:07:25.425Z,2.19
2023-01-25T12:12:41.960Z,1.99
2023-01-25T12:18:01.018Z,2.09
2023-01-25T12:23:31.541Z,2.13
2023-01-25T12:28:42.121Z,2.04
2023-01-25T12:33:50.801Z,2.12
2023-01-25T12:38:59.773Z,2.23
2023-01-25T12:44:13.961Z,1.76
2023-01-25T12:49:24.848Z,1.88
2023-01-25T12:54:34.611Z,1.92
2023-01-25T12:59:46.841Z,2.08
2023-01-25T13:05:01.033Z,2.23
2023-01-25T13:10:11.587Z,2.07
2023-01-25T13:15:37.582Z,2.02
2023-01-25T13:20:50.434Z,1.88
2023-01-25T13:25:53.369Z,1.18
2023-01-25T13:30:57.592Z,1.35
2023-01-25T13:36:39.853Z,0.95
2023-01-25T13:41:59.773Z,1.40
2023-01-25T13:47:06.895Z,1.57
2023-01-25T13:52:16.865Z,1.71
2023-01-25T13:57:22.542Z,1.81
2023-01-25T14:02:28.302Z,1.75
2023-01-25T14:07:34.634Z,1.62
2023-01-25T14:12:40.249Z,1.63
2023-01-25T14:17:44.745Z,1.53
2023-01-25T14:22:52.233Z,1.59
2023-01-25T14:27:57.095Z,1.75
2023-01-25T14:33:04.016Z,1.38
2023-01-25T14:38:24.978Z,1.72
2023-01-25T14:43:29.030Z,1.52
2023-01-25T14:48:38.122Z,1.40
2023-01-25T14:53:43.876Z,1.52
2023-01-25T14:58:50.808Z,1.50
2023-01-25T15:04:03.346Z,1.76
2023-01-25T15:09:06.343Z,1.81
2023-01-25T15:14:18.202Z,1.87
2023-01-25T15:19:28.885Z,2.08
2023-01-25T15:24:31.770Z,2.02
2023-01-25T15:29:34.657Z,2.05
2023-01-25T15:34:38.952Z,1.97
2023-01-25T15:39:41.833Z,1.82
2023-01-25T15:44:44.773Z,1.85
2023-01-25T15:49:49.589Z,1.84
2023-01-25T15:55:01.480Z,1.83
2023-01-25T16:00:06.739Z,1.93
2023-01-25T16:05:11.366Z,1.89
2023-01-25T16:10:24.218Z,2.02
2023-01-25T16:15:27.157Z,1.90
2023-01-25T16:20:31.692Z,1.94
2023-01-25T16:25:34.568Z,1.85
2023-01-25T16:30:37.524Z,1.89
2023-01-25T16:35:41.800Z,1.80
2023-01-25T16:40:44.813Z,1.65
2023-01-25T16:45:47.729Z,1.77
2023-01-25T16:50:52.821Z,1.83
2023-01-25T16:55:55.712Z,1.91
2023-01-25T17:00:58.596Z,1.96
2023-01-25T17:06:02.853Z,1.74
2023-01-25T17:11:06.412Z,1.74
2023-01-25T17:16:09.642Z,1.89
2023-01-25T17:21:16.887Z,1.94
2023-01-25T17:26:21.946Z,2.03
2023-01-25T17:31:27.654Z,2.08
2023-01-25T17:36:32.078Z,1.87
2023-01-25T17:41:35.155Z,1.72
2023-01-25T17:46:38.370Z,1.19
2023-01-25T17:51:42.610Z,1.75
2023-01-25T17:56:45.513Z,1.88
2023-01-25T18:01:48.562Z,1.90
2023-01-25T18:06:53.016Z,1.86
2023-01-25T18:11:55.861Z,1.89
2023-01-25T18:16:58.983Z,1.85
2023-01-25T18:22:03.309Z,1.75
2023-01-25T18:27:08.244Z,1.80
2023-01-25T18:32:11.149Z,1.87
2023-01-25T18:37:29.287Z,1.79
2023-01-25T18:42:32.223Z,1.78
2023-01-25T18:47:35.112Z,1.79
2023-01-25T18:52:39.430Z,1.82
2023-01-25T18:57:42.343Z,1.76
2023-01-25T19:02:45.315Z,1.73
2023-01-25T19:07:49.608Z,1.67
2023-01-25T19:12:52.530Z,1.71
2023-01-25T19:17:55.408Z,1.68
2023-01-25T19:22:59.641Z,1.65
2023-01-25T19:28:02.987Z,1.72
2023-01-25T19:33:05.891Z,1.68
2023-01-25T19:38:10.286Z,1.72
2023-01-25T19:43:13.223Z,1.74
2023-01-25T19:48:16.141Z,1.81
2023-01-25T19:53:20.390Z,1.43
2023-01-25T19:58:27.314Z,1.55
2023-01-25T20:03:30.910Z,1.75
2023-01-25T20:08:36.943Z,1.00
2023-01-25T20:13:39.997Z,1.10
2023-01-25T20:18:42.934Z,1.65
2023-01-25T20:23:49.197Z,1.68
2023-01-25T20:28:53.523Z,1.49
2023-01-25T20:33:58.986Z,1.59
2023-01-25T20:39:03.810Z,1.64
2023-01-25T20:44:08.635Z,1.54
2023-01-25T20:49:15.462Z,1.58
2023-01-25T20:54:21.264Z,1.53
2023-01-25T20:59:24.154Z,1.40
2023-01-25T21:04:27.050Z,1.30
2023-01-25T21:09:31.308Z,1.43
2023-01-25T21:14:34.251Z,1.64
2023-01-25T21:19:37.560Z,1.75
2023-01-25T21:24:41.842Z,1.51
2023-01-25T21:29:46.996Z,1.75
2023-01-25T21:34:50.041Z,1.70
2023-01-25T21:39:54.341Z,1.58
2023-01-25T21:45:14.568Z,1.88
2023-01-25T21:50:35.565Z,1.83
2023-01-25T21:55:39.885Z,1.77
2023-01-25T22:00:42.796Z,1.81
2023-01-25T22:05:45.673Z,1.73
2023-01-25T22:10:50.232Z,1.71
2023-01-25T22:15:53.190Z,1.73
2023-01-25T22:20:59.621Z,1.77
2023-01-25T22:26:08.807Z,1.74
2023-01-25T22:31:11.787Z,1.83
2023-01-25T22:36:17.051Z,1.65
2023-01-25T22:41:22.671Z,1.81
2023-01-25T22:46:28.006Z,1.73
2023-01-25T22:51:31.722Z,1.81
2023-01-25T22:56:36.015Z,1.68
2023-01-25T23:01:39.054Z,1.65
2023-01-25T23:06:41.946Z,1.77
2023-01-25T23:11:46.206Z,1.68
2023-01-25T23:16:49.243Z,1.84
2023-01-25T23:21:52.162Z,1.77
2023-01-25T23:26:56.433Z,1.90
2023-01-25T23:32:00.133Z,1.90
2023-01-25T23:37:03.097Z,1.95
2023-01-25T23:42:07.475Z,2.00
2023-01-25T23:47:10.401Z,1.90
2023-01-25T23:52:13.389Z,2.03
2023-01-25T23:57:17.649Z,1.95
